createdAt,value
2022-11-14T00:00:59.847Z,22.02
2022-11-14T00:03:26.161Z,26.85
2022-11-14T00:05:53.576Z,23.23
2022-11-14T00:08:25.166Z,23.90
2022-11-14T00:10:52.346Z,24.33
2022-11-14T00:13:20.320Z,27.83
2022-11-14T00:15:55.239Z,24.75
2022-11-14T00:18:22.498Z,26.73
2022-11-14T00:20:51.049Z,24.48
2022-11-14T00:23:18.651Z,24.92
2022-11-14T00:25:45.920Z,22.52
2022-11-14T00:28:13.158Z,20.48
2022-11-14T00:30:39.517Z,25.23
2022-11-14T00:33:05.840Z,24.45
2022-11-14T00:35:32.280Z,23.23
2022-11-14T00:37:58.618Z,23.70
2022-11-14T00:40:25.071Z,24.05
2022-11-14T00:42:51.503Z,24.45
2022-11-14T00:45:17.992Z,23.48
2022-11-14T00:47:44.406Z,25.25
2022-11-14T00:50:10.893Z,25.10
2022-11-14T00:52:37.193Z,28.08
2022-11-14T00:55:03.903Z,26.17
2022-11-14T00:57:30.382Z,27.77
2022-11-14T00:59:56.794Z,28.83
2022-11-14T01:02:23.302Z,28.80
2022-11-14T01:04:49.663Z,24.33
2022-11-14T01:07:16.314Z,24.48
2022-11-14T01:09:42.755Z,28.02
2022-11-14T01:12:09.194Z,25.40
2022-11-14T01:14:35.633Z,25.85
2022-11-14T01:17:03.053Z,27.20
2022-11-14T01:19:29.470Z,27.55
2022-11-14T01:21:55.875Z,28.17
2022-11-14T01:24:22.197Z,25.65
2022-11-14T01:26:48.637Z,24.75
2022-11-14T01:29:16.022Z,29.50
2022-11-14T01:31:43.474Z,28.88
2022-11-14T01:34:09.963Z,27.30
2022-11-14T01:36:36.344Z,28.85
2022-11-14T01:39:04.109Z,25.48
2022-11-14T01:41:30.452Z,29.65
2022-11-14T01:43:56.796Z,25.40
2022-11-14T01:46:28.689Z,28.42
2022-11-14T01:49:16.285Z,24.10
2022-11-14T01:51:47.186Z,26.05
2022-11-14T01:54:20.816Z,24.75
2022-11-14T01:56:53.873Z,27.38
2022-11-14T01:59:24.949Z,30.70
2022-11-14T02:01:53.539Z,26.85
2022-11-14T02:04:29.730Z,25.33
2022-11-14T02:07:00.206Z,25.60
2022-11-14T02:09:30.107Z,24.73
2022-11-14T02:11:58.657Z,26.45
2022-11-14T02:14:26.571Z,25.90
2022-11-14T02:17:22.321Z,28.08
2022-11-14T02:19:42.267Z,24.77
2022-11-14T02:22:08.657Z,24.98
2022-11-14T02:24:35.106Z,24.55
2022-11-14T02:27:04.065Z,24.20
2022-11-14T02:29:32.346Z,23.48
2022-11-14T02:31:59.069Z,24.38
2022-11-14T02:34:25.686Z,24.63
2022-11-14T02:36:52.123Z,24.33
2022-11-14T02:39:18.521Z,24.33
2022-11-14T02:41:45.002Z,25.45
2022-11-14T02:44:11.430Z,23.60
2022-11-14T02:46:37.881Z,20.80
2022-11-14T02:49:05.333Z,24.52
2022-11-14T02:51:31.681Z,21.77
2022-11-14T02:53:58.037Z,18.33
2022-11-14T02:56:24.484Z,19.55
2022-11-14T02:58:50.843Z,15.52
2022-11-14T03:01:21.636Z,18.85
2022-11-14T03:03:48.294Z,17.83
2022-11-14T03:06:16.272Z,16.35
2022-11-14T03:08:42.711Z,15.30
2022-11-14T03:11:10.223Z,15.77
2022-11-14T03:13:36.667Z,18.02
2022-11-14T03:16:14.387Z,14.45
2022-11-14T03:18:41.958Z,17.73
2022-11-14T03:21:10.978Z,16.55
2022-11-14T03:23:37.418Z,15.80
2022-11-14T03:26:06.436Z,15.93
2022-11-14T03:28:33.101Z,15.75
2022-11-14T03:30:59.493Z,16.90
2022-11-14T03:33:25.903Z,16.08
2022-11-14T03:35:52.727Z,18.50
2022-11-14T03:38:22.899Z,18.80
2022-11-14T03:40:50.270Z,17.40
2022-11-14T03:43:17.833Z,16.48
2022-11-14T03:45:44.474Z,17.70
2022-11-14T03:48:11.313Z,14.60
2022-11-14T03:50:39.184Z,15.90
2022-11-14T03:53:05.709Z,14.43
2022-11-14T03:55:33.186Z,12.38
2022-11-14T03:57:59.716Z,12.13
2022-11-14T04:00:30.198Z,12.15
2022-11-14T04:02:57.591Z,11.32
2022-11-14T04:05:25.055Z,11.48
2022-11-14T04:07:51.455Z,10.95
2022-11-14T04:10:18.952Z,11.85
2022-11-14T04:12:49.836Z,12.45
2022-11-14T04:15:17.291Z,10.60
2022-11-14T04:17:49.560Z,11.05
2022-11-14T04:20:16.206Z,12.65
2022-11-14T04:22:42.613Z,9.90
2022-11-14T04:25:10.226Z,10.85
2022-11-14T04:27:36.724Z,9.20
2022-11-14T04:30:04.696Z,12.45
2022-11-14T04:32:31.109Z,11.35
2022-11-14T04:34:59.314Z,9.98
2022-11-14T04:37:26.809Z,9.90
2022-11-14T04:39:53.564Z,10.35
2022-11-14T04:42:20.003Z,8.98
2022-11-14T04:44:46.492Z,11.02
2022-11-14T04:47:14.007Z,9.82
2022-11-14T04:49:40.436Z,9.15
2022-11-14T04:52:06.877Z,10.05
2022-11-14T04:54:33.292Z,11.65
2022-11-14T04:56:59.656Z,8.75
2022-11-14T04:59:26.093Z,10.80
2022-11-14T05:01:52.711Z,10.57
2022-11-14T05:04:19.654Z,13.45
2022-11-14T05:06:46.175Z,9.52
2022-11-14T05:09:12.969Z,10.25
2022-11-14T05:11:39.422Z,9.23
2022-11-14T05:14:05.858Z,10.20
2022-11-14T05:16:32.406Z,11.77
2022-11-14T05:18:58.871Z,10.13
2022-11-14T05:21:27.213Z,10.93
2022-11-14T05:23:54.598Z,13.05
2022-11-14T05:26:23.044Z,10.85
2022-11-14T05:28:49.494Z,11.63
2022-11-14T05:31:19.171Z,11.30
2022-11-14T05:33:46.953Z,12.85
2022-11-14T05:36:16.289Z,10.73
2022-11-14T05:38:43.361Z,12.13
2022-11-14T05:41:14.984Z,11.40
2022-11-14T05:43:41.957Z,11.63
2022-11-14T05:46:11.446Z,11.02
2022-11-14T05:48:38.464Z,12.07
2022-11-14T05:51:06.797Z,10.23
2022-11-14T05:53:34.061Z,11.32
2022-11-14T05:56:01.874Z,12.07
2022-11-14T05:58:28.814Z,14.43
2022-11-14T06:01:02.994Z,12.88
2022-11-14T06:03:34.101Z,12.10
2022-11-14T06:06:06.313Z,12.02
2022-11-14T06:08:33.291Z,13.70
2022-11-14T06:11:11.675Z,15.43
2022-11-14T06:13:38.824Z,13.63
2022-11-14T06:16:07.979Z,14.02
2022-11-14T06:18:34.942Z,12.23
2022-11-14T06:21:05.842Z,12.77
2022-11-14T06:23:32.409Z,13.63
2022-11-14T06:26:05.342Z,11.80
2022-11-14T06:28:32.182Z,12.23
2022-11-14T06:31:01.511Z,10.13
2022-11-14T06:33:29.770Z,15.50
2022-11-14T06:36:00.831Z,11.25
2022-11-14T06:38:28.508Z,10.05
2022-11-14T06:41:07.335Z,11.88
2022-11-14T06:43:40.073Z,11.38
2022-11-14T06:46:07.711Z,10.25
2022-11-14T06:48:34.829Z,15.32
2022-11-14T06:51:02.324Z,9.68
2022-11-14T06:53:30.922Z,8.95
2022-11-14T06:55:58.344Z,18.50
2022-11-14T06:58:30.053Z,65.80
2022-11-14T07:00:57.238Z,29.50
2022-11-14T07:03:23.830Z,18.92
2022-11-14T07:05:50.315Z,11.18
2022-11-14T07:08:30.227Z,10.20
2022-11-14T07:11:11.414Z,14.32
2022-11-14T07:13:38.345Z,13.35
2022-11-14T07:16:05.293Z,12.10
2022-11-14T07:18:33.001Z,10.20
2022-11-14T07:21:05.286Z,11.60
2022-11-14T07:23:33.183Z,8.30
2022-11-14T07:26:06.895Z,10.52
2022-11-14T07:28:37.477Z,9.77
2022-11-14T07:31:05.035Z,9.75
2022-11-14T07:33:32.701Z,9.27
2022-11-14T07:35:59.197Z,10.02
2022-11-14T07:38:25.788Z,9.25
2022-11-14T07:41:00.317Z,9.32
2022-11-14T07:43:28.198Z,8.60
2022-11-14T07:45:59.281Z,9.27
2022-11-14T07:50:52.104Z,9.48
2022-11-14T07:53:19.130Z,9.13
2022-11-14T07:55:45.476Z,8.57
2022-11-14T07:58:11.941Z,9.43
2022-11-14T08:00:38.419Z,8.90
2022-11-14T08:03:07.180Z,8.57
2022-11-14T08:05:33.893Z,11.23
2022-11-14T08:08:01.371Z,8.75
2022-11-14T08:10:33.443Z,10.68
2022-11-14T08:13:25.299Z,10.75
2022-11-14T08:15:48.250Z,8.65
2022-11-14T08:18:14.666Z,10.60
2022-11-14T08:20:41.091Z,7.53
2022-11-14T08:23:07.755Z,8.75
2022-11-14T08:25:34.116Z,9.27
2022-11-14T08:28:00.490Z,8.68
2022-11-14T08:30:30.227Z,7.63
2022-11-14T08:32:56.710Z,7.65
2022-11-14T08:35:23.697Z,8.27
2022-11-14T08:37:50.139Z,8.10
2022-11-14T08:40:16.611Z,9.85
2022-11-14T08:42:42.942Z,8.02
2022-11-14T08:45:09.665Z,8.88
2022-11-14T08:47:36.087Z,9.05
2022-11-14T08:50:02.568Z,8.13
2022-11-14T08:52:28.970Z,7.65
2022-11-14T08:54:55.378Z,8.07
2022-11-14T08:57:21.767Z,8.88
2022-11-14T08:59:48.183Z,8.93
2022-11-14T09:02:15.565Z,8.43
2022-11-14T09:04:42.169Z,9.40
2022-11-14T09:07:08.676Z,7.25
2022-11-14T09:09:35.516Z,10.30
2022-11-14T09:12:02.055Z,8.15
2022-11-14T09:14:28.457Z,8.40
2022-11-14T09:16:55.798Z,8.65
2022-11-14T09:19:22.201Z,6.28
2022-11-14T09:21:48.575Z,7.47
2022-11-14T09:24:14.951Z,8.50
2022-11-14T09:26:42.419Z,7.90
2022-11-14T09:29:08.866Z,8.35
2022-11-14T09:31:36.313Z,8.27
2022-11-14T09:34:02.656Z,6.15
2022-11-14T09:36:29.090Z,7.30
2022-11-14T09:38:55.438Z,6.30
2022-11-14T09:41:46.139Z,8.65
2022-11-14T09:44:29.677Z,5.65
2022-11-14T09:47:10.812Z,6.43
2022-11-14T09:49:45.682Z,6.50
2022-11-14T09:52:31.639Z,5.55
2022-11-14T09:55:22.506Z,6.95
2022-11-14T09:57:49.384Z,7.05
2022-11-14T10:00:21.594Z,6.18
2022-11-14T10:02:55.061Z,7.40
2022-11-14T10:05:31.539Z,5.95
2022-11-14T10:08:24.910Z,5.88
2022-11-14T10:10:55.894Z,6.88
2022-11-14T10:13:52.912Z,6.38
2022-11-14T10:16:25.336Z,5.25
2022-11-14T10:19:18.495Z,4.70
2022-11-14T10:22:49.631Z,5.68
2022-11-14T10:25:30.668Z,5.40
2022-11-14T10:28:08.469Z,5.68
2022-11-14T10:30:58.744Z,5.03
2022-11-14T10:33:47.130Z,5.95
2022-11-14T10:36:29.688Z,6.25
2022-11-14T10:39:14.595Z,4.53
2022-11-14T10:41:56.658Z,5.63
2022-11-14T10:44:35.665Z,4.88
2022-11-14T10:47:06.748Z,5.50
2022-11-14T10:49:37.039Z,4.68
2022-11-14T10:52:09.840Z,5.80
2022-11-14T10:54:56.538Z,5.60
2022-11-14T10:57:23.225Z,7.13
2022-11-14T10:59:49.718Z,8.35
2022-11-14T11:02:17.354Z,3.92
2022-11-14T11:04:45.193Z,5.57
2022-11-14T11:07:31.619Z,6.55
2022-11-14T11:10:20.505Z,4.63
2022-11-14T11:12:52.498Z,4.20
2022-11-14T11:15:23.411Z,5.40
2022-11-14T11:17:56.858Z,4.60
2022-11-14T11:20:33.510Z,5.90
2022-11-14T11:23:25.719Z,5.65
2022-11-14T11:26:01.341Z,4.10
2022-11-14T11:28:30.651Z,5.28
2022-11-14T11:31:07.622Z,6.20
2022-11-14T11:33:38.711Z,5.18
2022-11-14T11:36:20.987Z,4.50
2022-11-14T11:38:47.838Z,5.22
2022-11-14T11:42:06.217Z,5.93
2022-11-14T11:44:17.637Z,4.95
2022-11-14T11:46:53.670Z,5.00
2022-11-14T11:49:20.053Z,4.57
2022-11-14T11:51:51.073Z,4.93
2022-11-14T11:54:20.351Z,5.85
2022-11-14T11:56:53.211Z,4.95
2022-11-14T11:59:35.015Z,4.45
2022-11-14T12:02:21.915Z,5.45
2022-11-14T12:04:50.812Z,5.40
2022-11-14T12:07:21.054Z,5.45
2022-11-14T12:10:09.808Z,4.72
2022-11-14T12:12:43.598Z,6.55
2022-11-14T12:15:37.673Z,5.57
2022-11-14T12:18:12.736Z,5.80
2022-11-14T12:20:39.207Z,4.75
2022-11-14T12:23:25.849Z,5.95
2022-11-14T12:26:21.390Z,4.95
2022-11-14T12:28:50.372Z,4.95
2022-11-14T12:31:17.992Z,5.43
2022-11-14T12:33:51.357Z,5.03
2022-11-14T12:36:17.894Z,4.55
2022-11-14T12:38:48.823Z,6.05
2022-11-14T12:41:26.862Z,4.47
2022-11-14T12:43:53.536Z,7.55
2022-11-14T12:46:20.092Z,4.82
2022-11-14T12:48:46.667Z,4.18
2022-11-14T12:51:25.294Z,5.35
2022-11-14T12:53:53.257Z,5.15
2022-11-14T12:56:31.449Z,5.20
2022-11-14T12:59:33.556Z,5.38
2022-11-14T13:02:12.211Z,5.97
2022-11-14T13:05:03.317Z,4.20
2022-11-14T13:08:06.391Z,5.38
2022-11-14T13:10:39.123Z,4.40
2022-11-14T13:13:29.836Z,4.05
2022-11-14T13:16:20.495Z,4.32
2022-11-14T13:19:18.107Z,4.38
2022-11-14T13:22:12.128Z,4.90
2022-11-14T13:25:01.737Z,5.50
2022-11-14T13:28:00.255Z,3.45
2022-11-14T13:30:17.293Z,3.90
2022-11-14T13:32:46.198Z,5.00
2022-11-14T13:35:24.162Z,4.57
2022-11-14T13:38:05.780Z,5.20
2022-11-14T13:40:54.134Z,4.57
2022-11-14T13:43:46.854Z,4.40
2022-11-14T13:46:25.393Z,5.25
2022-11-14T13:49:11.535Z,4.10
2022-11-14T13:51:43.733Z,4.00
2022-11-14T13:54:17.709Z,4.43
2022-11-14T13:57:22.838Z,5.18
2022-11-14T14:00:02.411Z,4.72
2022-11-14T14:02:39.014Z,4.38
2022-11-14T14:05:25.095Z,5.55
2022-11-14T14:08:08.072Z,4.80
2022-11-14T14:10:41.442Z,4.95
2022-11-14T14:13:35.792Z,6.45
2022-11-14T14:16:10.771Z,3.30
2022-11-14T14:19:03.428Z,3.40
2022-11-14T14:21:44.914Z,4.28
2022-11-14T14:24:26.865Z,3.92
2022-11-14T14:27:05.247Z,3.75
2022-11-14T14:29:59.088Z,4.63
2022-11-14T14:32:25.517Z,4.22
2022-11-14T14:34:56.808Z,3.90
2022-11-14T14:37:27.133Z,4.78
2022-11-14T14:40:05.638Z,4.18
2022-11-14T14:42:45.915Z,3.20
2022-11-14T14:45:20.767Z,4.35
2022-11-14T14:47:50.409Z,5.25
2022-11-14T14:50:22.868Z,4.55
2022-11-14T14:53:25.904Z,5.47
2022-11-14T14:55:57.819Z,5.22
2022-11-14T14:58:26.232Z,4.15
2022-11-14T15:00:56.504Z,4.70
2022-11-14T15:03:28.612Z,4.15
2022-11-14T15:05:59.367Z,7.40
2022-11-14T15:08:26.391Z,4.47
2022-11-14T15:10:59.364Z,4.30
2022-11-14T15:13:28.570Z,5.80
2022-11-14T15:15:56.996Z,5.40
2022-11-14T15:18:28.343Z,4.70
2022-11-14T15:21:16.468Z,6.72
2022-11-14T15:23:43.418Z,5.20
2022-11-14T15:26:17.853Z,6.68
2022-11-14T15:28:45.225Z,7.07
2022-11-14T15:31:22.215Z,9.63
2022-11-14T15:34:04.596Z,7.30
2022-11-14T15:39:00.405Z,8.32
2022-11-14T15:41:28.012Z,6.18
2022-11-14T15:44:01.611Z,5.93
2022-11-14T15:46:34.022Z,5.97
2022-11-14T15:49:21.725Z,7.50
2022-11-14T15:52:01.411Z,7.70
2022-11-14T15:54:30.445Z,9.02
2022-11-14T15:57:02.478Z,6.85
2022-11-14T15:59:30.686Z,7.22
2022-11-14T16:02:09.846Z,8.98
2022-11-14T16:04:39.773Z,6.93
2022-11-14T16:07:12.643Z,8.48
2022-11-14T16:09:43.092Z,12.93
2022-11-14T16:12:09.585Z,18.95
2022-11-14T16:14:36.433Z,13.02
2022-11-14T16:17:03.667Z,86.38
2022-11-14T16:19:30.354Z,49.03
2022-11-14T16:22:02.811Z,64.22
2022-11-14T16:24:34.222Z,42.65
2022-11-14T16:27:01.134Z,21.73
2022-11-14T16:29:28.166Z,13.98
2022-11-14T16:31:57.163Z,13.35
2022-11-14T16:34:27.362Z,17.80
2022-11-14T16:37:01.958Z,11.48
2022-11-14T16:39:29.178Z,11.55
2022-11-14T16:42:01.675Z,15.77
2022-11-14T16:44:28.211Z,11.93
2022-11-14T16:46:54.635Z,14.63
2022-11-14T16:49:22.096Z,22.63
2022-11-14T16:51:50.791Z,13.73
2022-11-14T16:54:19.085Z,15.85
2022-11-14T16:56:45.858Z,24.42
2022-11-14T16:59:12.711Z,21.00
2022-11-14T17:01:39.263Z,12.23
2022-11-14T17:04:05.850Z,13.60
2022-11-14T17:06:32.443Z,12.60
2022-11-14T17:09:00.053Z,13.73
2022-11-14T17:11:27.323Z,10.52
2022-11-14T17:13:54.558Z,11.57
2022-11-14T17:16:20.913Z,13.40
2022-11-14T17:18:54.684Z,12.63
2022-11-14T17:21:22.141Z,12.63
2022-11-14T17:23:56.914Z,11.05
2022-11-14T17:26:23.764Z,13.77
2022-11-14T17:28:50.122Z,14.27
2022-11-14T17:31:16.991Z,18.38
2022-11-14T17:33:44.157Z,17.88
2022-11-14T17:36:11.506Z,14.20
2022-11-14T17:38:38.218Z,11.10
2022-11-14T17:41:07.823Z,14.40
2022-11-14T17:43:39.212Z,28.95
2022-11-14T17:46:14.126Z,15.40
2022-11-14T17:48:42.536Z,12.68
2022-11-14T17:51:12.809Z,12.90
2022-11-14T17:53:41.651Z,13.95
2022-11-14T17:56:12.775Z,12.57
2022-11-14T18:03:52.519Z,15.45
2022-11-14T18:06:20.652Z,13.70
2022-11-14T18:08:47.707Z,19.98
2022-11-14T18:11:16.967Z,14.02
2022-11-14T18:13:44.038Z,15.05
2022-11-14T18:16:13.448Z,19.92
2022-11-14T18:18:40.167Z,16.77
2022-11-14T18:21:13.611Z,26.10
2022-11-14T18:23:40.162Z,21.17
2022-11-14T18:26:16.879Z,20.02
2022-11-14T18:28:43.882Z,18.85
2022-11-14T18:31:11.717Z,16.90
2022-11-14T18:33:39.550Z,16.50
2022-11-14T18:36:09.903Z,11.18
2022-11-14T18:38:36.282Z,10.60
2022-11-14T18:41:06.808Z,11.32
2022-11-14T18:43:33.920Z,11.80
2022-11-14T18:46:10.806Z,15.25
2022-11-14T18:51:08.030Z,20.60
2022-11-14T18:53:36.001Z,12.63
2022-11-14T18:56:10.245Z,12.05
2022-11-14T18:58:39.561Z,11.95
2022-11-14T19:01:23.904Z,20.35
2022-11-14T19:03:56.397Z,12.45
2022-11-14T19:06:23.176Z,12.20
2022-11-14T19:08:49.671Z,14.55
2022-11-14T19:11:36.699Z,11.77
2022-11-14T19:14:05.744Z,15.48
2022-11-14T19:16:34.545Z,22.42
2022-11-14T19:19:01.893Z,15.70
2022-11-14T19:21:29.010Z,17.55
2022-11-14T19:23:55.648Z,39.42
2022-11-14T19:26:23.268Z,22.10
2022-11-14T19:28:49.699Z,13.88
2022-11-14T19:31:16.915Z,14.68
2022-11-14T19:33:45.199Z,19.77
2022-11-14T19:36:52.798Z,14.68
2022-11-14T19:39:08.361Z,11.88
2022-11-14T19:41:34.795Z,13.85
2022-11-14T19:44:02.376Z,15.60
2022-11-14T19:46:29.119Z,12.85
2022-11-14T19:49:00.132Z,13.50
2022-11-14T19:51:28.025Z,12.43
2022-11-14T19:53:55.659Z,13.50
2022-11-14T19:56:23.245Z,13.57
2022-11-14T19:58:51.100Z,12.45
2022-11-14T20:01:20.644Z,14.68
2022-11-14T20:03:52.085Z,9.02
2022-11-14T20:06:24.956Z,10.13
2022-11-14T20:08:51.616Z,10.93
2022-11-14T20:11:18.414Z,12.32
2022-11-14T20:13:45.294Z,10.85
2022-11-14T20:16:12.703Z,9.93
2022-11-14T20:18:40.347Z,8.13
2022-11-14T20:21:08.879Z,10.88
2022-11-14T20:23:35.831Z,11.43
2022-11-14T20:26:04.913Z,12.98
2022-11-14T20:28:34.863Z,10.32
2022-11-14T20:31:02.398Z,12.68
2022-11-14T20:33:30.166Z,10.20
2022-11-14T20:36:02.487Z,10.63
2022-11-14T20:38:30.677Z,9.75
2022-11-14T20:40:58.421Z,12.18
2022-11-14T20:43:25.271Z,11.52
2022-11-14T20:46:13.637Z,11.95
2022-11-14T20:51:07.935Z,10.05
2022-11-14T20:53:34.887Z,11.52
2022-11-14T20:56:01.618Z,11.05
2022-11-14T20:58:28.333Z,13.50
2022-11-14T21:00:55.014Z,10.30
2022-11-14T21:03:22.059Z,9.73
2022-11-14T21:05:48.406Z,9.35
2022-11-14T21:08:15.267Z,11.40
2022-11-14T21:10:46.752Z,10.63
2022-11-14T21:13:36.270Z,14.95
2022-11-14T21:16:06.565Z,11.15
2022-11-14T21:18:34.182Z,13.32
2022-11-14T21:21:09.595Z,10.20
2022-11-14T21:23:36.420Z,16.25
2022-11-14T21:26:05.414Z,11.30
2022-11-14T21:28:33.373Z,10.40
2022-11-14T21:31:00.893Z,10.52
2022-11-14T21:33:31.006Z,11.50
2022-11-14T21:36:07.301Z,11.10
2022-11-14T21:38:43.327Z,13.38
2022-11-14T21:41:16.327Z,12.23
2022-11-14T21:43:43.482Z,14.73
2022-11-14T21:46:10.935Z,13.27
2022-11-14T21:48:41.527Z,12.27
2022-11-14T21:51:12.015Z,14.00
2022-11-14T21:53:39.781Z,13.30
2022-11-14T21:56:12.568Z,14.80
2022-11-14T21:58:39.547Z,14.77
2022-11-14T22:01:38.064Z,12.50
2022-11-14T22:04:13.953Z,15.98
2022-11-14T22:06:41.931Z,13.80
2022-11-14T22:09:08.968Z,16.77
2022-11-14T22:11:39.958Z,15.45
2022-11-14T22:14:07.175Z,17.10
2022-11-14T22:16:34.421Z,17.48
2022-11-14T22:19:05.224Z,15.13
2022-11-14T22:21:32.293Z,17.13
2022-11-14T22:23:58.715Z,17.90
2022-11-14T22:26:25.141Z,18.38
2022-11-14T22:28:51.505Z,16.27
2022-11-14T22:31:20.178Z,17.80
2022-11-14T22:33:48.910Z,16.98
2022-11-14T22:36:26.174Z,18.63
2022-11-14T22:38:54.251Z,20.27
2022-11-14T22:41:32.251Z,19.75
2022-11-14T22:43:59.475Z,17.95
2022-11-14T22:46:27.121Z,17.25
2022-11-14T22:48:53.590Z,17.13
2022-11-14T22:51:24.963Z,14.23
2022-11-14T22:53:57.217Z,16.23
2022-11-14T22:56:25.971Z,16.27
2022-11-14T22:58:52.380Z,14.73
2022-11-14T23:01:20.144Z,14.98
2022-11-14T23:03:50.187Z,14.77
2022-11-14T23:06:18.690Z,14.45
2022-11-14T23:08:45.342Z,12.20
2022-11-14T23:11:14.255Z,15.57
2022-11-14T23:13:43.019Z,15.88
2022-11-14T23:16:10.343Z,14.57
2022-11-14T23:18:38.209Z,14.57
2022-11-14T23:21:08.196Z,15.20
2022-11-14T23:23:34.773Z,14.68
2022-11-14T23:26:06.034Z,17.23
2022-11-14T23:30:59.726Z,13.98
2022-11-14T23:33:26.473Z,14.18
2022-11-14T23:35:53.254Z,16.13
2022-11-14T23:38:19.951Z,15.77
2022-11-14T23:41:00.142Z,14.55
2022-11-14T23:43:27.758Z,14.98
2022-11-14T23:45:54.451Z,16.75
2022-11-14T23:48:21.938Z,14.73
2022-11-14T23:50:53.300Z,13.30
2022-11-14T23:53:20.201Z,15.10
2022-11-14T23:55:59.659Z,17.02
2022-11-14T23:58:27.603Z,14.52
